createdAt,value
2023-09-11T05:28:23.477Z,7.57
2023-09-11T05:31:25.245Z,10.82
2023-09-11T05:34:26.959Z,12.55
2023-09-11T05:37:28.862Z,9.98
2023-09-11T05:40:30.705Z,9.77
2023-09-11T05:43:32.435Z,9.68
2023-09-11T05:46:36.917Z,9.73
2023-09-11T05:49:39.676Z,9.75
2023-09-11T05:52:41.386Z,9.82
2023-09-11T05:55:43.195Z,9.48
2023-09-11T05:58:44.929Z,9.43
2023-09-11T06:01:50.145Z,9.10
2023-09-11T06:04:51.838Z,10.05
2023-09-11T06:07:53.582Z,9.43
2023-09-11T06:10:55.346Z,10.02
2023-09-11T06:13:57.124Z,8.20
2023-09-11T06:16:58.887Z,9.70
2023-09-11T06:20:00.993Z,8.90
2023-09-11T06:23:03.420Z,9.32
2023-09-11T06:26:05.302Z,9.45
2023-09-11T06:29:07.150Z,8.77
2023-09-11T06:32:08.940Z,8.60
2023-09-11T06:35:11.233Z,6.60
2023-09-11T06:38:13.216Z,8.57
2023-09-11T06:41:30.069Z,6.95
2023-09-11T06:44:32.200Z,8.82
2023-09-11T06:47:34.458Z,10.55
2023-09-11T06:50:36.328Z,7.68
2023-09-11T06:53:38.138Z,8.45
2023-09-11T06:56:42.746Z,4.78
2023-09-11T06:59:44.694Z,4.45
2023-09-11T07:02:50.121Z,7.53
2023-09-11T07:05:52.773Z,8.40
2023-09-11T07:08:54.879Z,7.55
2023-09-11T07:11:57.666Z,8.15
2023-09-11T07:18:02.063Z,7.70
2023-09-11T07:21:05.397Z,7.60
2023-09-11T07:24:07.474Z,7.65
2023-09-11T07:27:09.230Z,6.47
2023-09-11T07:30:11.496Z,7.47
2023-09-11T07:33:13.324Z,8.32
2023-09-11T07:36:15.305Z,7.22
2023-09-11T07:39:17.294Z,6.07
2023-09-11T07:42:19.115Z,8.18
2023-09-11T07:45:21.656Z,7.85
2023-09-11T07:48:23.479Z,7.03
2023-09-11T07:51:26.001Z,7.80
2023-09-11T07:54:27.951Z,6.35
2023-09-11T07:57:31.512Z,6.70
2023-09-11T08:00:33.328Z,6.43
2023-09-11T08:03:35.786Z,7.10
2023-09-11T08:06:49.827Z,8.80
2023-09-11T08:09:53.885Z,7.25
2023-09-11T08:12:55.704Z,7.47
2023-09-11T08:15:57.364Z,6.85
2023-09-11T08:18:59.410Z,8.38
2023-09-11T08:22:01.135Z,6.20
2023-09-11T08:25:03.459Z,8.32
2023-09-11T08:28:05.724Z,7.53
2023-09-11T08:31:07.550Z,7.15
2023-09-11T08:34:09.650Z,7.55
2023-09-11T08:37:11.471Z,7.43
2023-09-11T08:40:13.278Z,6.80
2023-09-11T08:43:15.002Z,8.27
2023-09-11T08:46:17.322Z,7.68
2023-09-11T08:49:20.285Z,8.60
2023-09-11T08:52:23.294Z,8.75
2023-09-11T08:55:25.712Z,7.70
2023-09-11T08:58:27.479Z,6.50
2023-09-11T09:01:29.429Z,10.63
2023-09-11T09:04:31.461Z,7.25
2023-09-11T09:07:33.641Z,7.95
2023-09-11T09:10:35.322Z,8.57
2023-09-11T09:13:37.250Z,7.00
2023-09-11T09:16:38.946Z,7.80
2023-09-11T09:19:40.880Z,6.03
2023-09-11T09:22:56.068Z,6.32
2023-09-11T09:26:04.886Z,6.50
2023-09-11T09:32:11.108Z,7.43
2023-09-11T09:35:12.922Z,6.40
2023-09-11T09:38:14.740Z,7.53
2023-09-11T09:41:21.636Z,7.70
2023-09-11T09:44:33.342Z,6.32
2023-09-11T09:47:35.198Z,6.50
2023-09-11T09:51:00.012Z,3.78
2023-09-11T09:54:01.987Z,5.15
2023-09-11T09:57:03.911Z,6.05
2023-09-11T10:00:06.667Z,4.45
2023-09-11T10:06:33.406Z,5.35
2023-09-11T10:09:36.174Z,5.25
2023-09-11T10:12:37.899Z,4.80
2023-09-11T10:15:40.581Z,4.38
2023-09-11T10:18:46.665Z,5.25
2023-09-11T10:21:48.635Z,6.13
2023-09-11T10:24:50.329Z,4.30
2023-09-11T10:28:01.962Z,3.75
2023-09-11T10:31:08.437Z,3.30
2023-09-11T10:34:11.066Z,3.72
2023-09-11T10:37:12.804Z,4.45
2023-09-11T10:40:14.905Z,4.40
2023-09-11T10:43:16.604Z,4.10
2023-09-11T10:46:31.605Z,4.97
2023-09-11T10:49:38.064Z,3.42
2023-09-11T10:52:39.775Z,4.13
2023-09-11T10:55:41.501Z,2.40
2023-09-11T10:58:43.390Z,3.33
2023-09-11T11:01:48.981Z,3.50
2023-09-11T11:04:50.723Z,3.30
2023-09-11T11:07:52.720Z,2.97
2023-09-11T11:10:57.469Z,4.60
2023-09-11T11:14:16.143Z,3.63
2023-09-11T11:17:18.008Z,4.05
2023-09-11T11:20:19.841Z,1.42
2023-09-11T11:23:21.535Z,3.25
2023-09-11T11:26:26.815Z,4.45
2023-09-11T11:29:28.636Z,2.88
2023-09-11T11:32:30.926Z,3.42
2023-09-11T11:35:32.636Z,5.40
2023-09-11T11:38:34.849Z,3.22
2023-09-11T11:41:40.947Z,3.13
2023-09-11T11:44:42.867Z,3.97
2023-09-11T11:47:45.027Z,3.65
2023-09-11T11:50:47.356Z,3.42
2023-09-11T11:53:49.098Z,3.92
2023-09-11T11:56:57.335Z,2.97
2023-09-11T12:00:00.494Z,3.63
2023-09-11T12:03:06.566Z,3.60
2023-09-11T12:06:08.473Z,2.60
2023-09-11T12:09:10.989Z,2.83
2023-09-11T12:12:12.758Z,3.17
2023-09-11T12:15:14.614Z,3.13
2023-09-11T12:18:16.463Z,3.05
2023-09-11T12:21:18.290Z,3.00
2023-09-11T12:24:20.009Z,3.45
2023-09-11T12:27:21.723Z,3.25
2023-09-11T12:30:23.484Z,2.10
2023-09-11T12:33:26.851Z,2.72
2023-09-11T12:36:29.016Z,1.17
2023-09-11T12:39:31.027Z,3.03
2023-09-11T12:42:32.706Z,3.78
2023-09-11T12:45:34.563Z,2.35
2023-09-11T12:48:41.415Z,2.97
2023-09-11T12:51:43.708Z,3.08
2023-09-11T12:54:45.436Z,1.65
2023-09-11T12:57:47.407Z,2.90
2023-09-11T13:00:49.431Z,2.53
2023-09-11T13:03:51.373Z,3.42
2023-09-11T13:06:53.202Z,1.02
2023-09-11T13:09:55.289Z,2.83
2023-09-11T13:12:57.060Z,2.67
2023-09-11T13:16:01.846Z,2.47
2023-09-11T13:20:03.937Z,2.67
2023-09-11T13:23:05.646Z,2.53
2023-09-11T13:26:08.330Z,2.92
2023-09-11T13:29:11.171Z,3.38
2023-09-11T13:32:12.896Z,3.38
2023-09-11T13:35:14.556Z,2.83
2023-09-11T13:38:16.489Z,4.10
2023-09-11T13:41:18.173Z,2.53
2023-09-11T13:44:19.888Z,3.28
2023-09-11T13:47:21.607Z,2.78
2023-09-11T13:50:23.345Z,2.53
2023-09-11T13:53:25.029Z,3.58
2023-09-11T13:56:26.711Z,2.50
2023-09-11T13:59:28.629Z,2.15
2023-09-11T14:02:30.356Z,1.80
2023-09-11T14:05:44.479Z,3.00
2023-09-11T14:08:47.442Z,2.35
2023-09-11T14:11:49.156Z,2.85
2023-09-11T14:14:50.992Z,2.83
2023-09-11T14:17:54.106Z,2.83
2023-09-11T14:20:55.801Z,0.40
2023-09-11T14:23:57.783Z,2.65
2023-09-11T14:26:59.593Z,2.45
2023-09-11T14:30:01.435Z,3.45
2023-09-11T14:33:03.422Z,3.17
2023-09-11T14:36:05.382Z,2.38
2023-09-11T14:39:07.437Z,3.00
2023-09-11T14:42:10.091Z,3.00
2023-09-11T14:48:13.864Z,2.97
2023-09-11T14:51:15.726Z,2.35
2023-09-11T14:54:17.433Z,2.17
2023-09-11T14:57:19.662Z,3.55
2023-09-11T15:00:22.553Z,3.25
2023-09-11T15:03:24.591Z,3.45
2023-09-11T15:06:28.187Z,2.13
2023-09-11T15:09:30.256Z,3.30
2023-09-11T15:12:32.040Z,3.47
2023-09-11T15:15:33.786Z,1.00
2023-09-11T15:18:35.671Z,2.15
2023-09-11T15:21:37.455Z,2.10
2023-09-11T15:24:39.197Z,3.33
2023-09-11T15:27:40.976Z,3.58
2023-09-11T15:30:42.812Z,4.22
2023-09-11T15:33:44.578Z,3.13
2023-09-11T15:36:46.312Z,0.20
2023-09-11T15:39:48.302Z,3.78
2023-09-11T15:42:50.050Z,3.85
2023-09-11T15:45:51.756Z,2.70
2023-09-11T15:48:53.623Z,5.57
2023-09-11T15:51:55.333Z,0.82
2023-09-11T15:54:57.096Z,2.97
2023-09-11T15:57:59.461Z,2.90
2023-09-11T16:01:02.410Z,0.80
2023-09-11T16:04:04.169Z,2.78
2023-09-11T16:07:06.333Z,3.20
2023-09-11T16:10:08.861Z,3.45
2023-09-11T16:13:10.617Z,3.33
2023-09-11T16:16:12.518Z,0.82
2023-09-11T16:19:14.657Z,3.85
2023-09-11T16:22:16.651Z,2.38
2023-09-11T16:25:18.335Z,3.33
2023-09-11T16:28:26.064Z,2.80
2023-09-11T16:31:27.895Z,3.80
2023-09-11T16:34:29.609Z,0.52
2023-09-11T16:37:31.321Z,0.73
2023-09-11T16:40:35.200Z,3.47
2023-09-11T16:43:36.939Z,3.85
2023-09-11T16:46:38.684Z,3.42
2023-09-11T16:49:40.707Z,3.10
2023-09-11T16:52:42.433Z,5.07
2023-09-11T16:55:44.741Z,1.20
2023-09-11T16:58:46.553Z,4.53
2023-09-11T17:01:48.355Z,3.55
2023-09-11T17:04:50.055Z,3.38
2023-09-11T17:07:51.855Z,3.17
2023-09-11T17:10:54.270Z,4.00
2023-09-11T17:13:56.302Z,3.85
2023-09-11T17:16:57.978Z,1.70
2023-09-11T17:20:00.189Z,2.65
2023-09-11T17:23:01.916Z,4.15
2023-09-11T17:26:03.615Z,2.97
2023-09-11T17:29:05.389Z,3.88
2023-09-11T17:32:10.673Z,4.18
2023-09-11T17:35:12.788Z,3.30
2023-09-11T17:38:16.125Z,3.95
2023-09-11T17:41:17.843Z,4.05
2023-09-11T17:44:19.545Z,3.67
2023-09-11T17:47:21.522Z,3.80
2023-09-11T17:50:23.546Z,1.00
2023-09-11T17:53:25.356Z,4.18
2023-09-11T17:56:27.383Z,3.55
2023-09-11T17:59:29.077Z,3.80
2023-09-11T18:02:30.792Z,2.97
2023-09-11T18:05:33.230Z,3.47
2023-09-11T18:08:34.980Z,4.70
2023-09-11T18:11:36.671Z,1.40
2023-09-11T18:14:38.366Z,4.18
2023-09-11T18:17:41.894Z,3.25
2023-09-11T18:20:45.558Z,3.58
2023-09-11T18:23:47.454Z,2.67
2023-09-11T18:26:49.246Z,2.45
2023-09-11T18:29:50.942Z,2.85
2023-09-11T18:32:53.191Z,4.75
2023-09-11T18:36:02.796Z,3.63
2023-09-11T18:39:05.492Z,3.20
2023-09-11T18:42:08.500Z,2.15
2023-09-11T18:45:11.526Z,3.53
2023-09-11T18:48:13.579Z,2.53
2023-09-11T18:51:15.409Z,2.28
2023-09-11T18:54:19.284Z,2.55
2023-09-11T18:57:21.056Z,2.78
2023-09-11T19:00:23.549Z,3.80
2023-09-11T19:03:25.417Z,3.33
2023-09-11T19:06:27.478Z,4.20
2023-09-11T19:09:30.548Z,3.67
2023-09-11T19:12:32.408Z,2.92
2023-09-11T19:15:34.183Z,2.97
2023-09-11T19:18:38.285Z,4.13
2023-09-11T19:21:40.231Z,4.25
2023-09-11T19:24:42.795Z,4.13
2023-09-11T19:27:44.713Z,3.83
2023-09-11T19:30:46.420Z,2.92
2023-09-11T19:33:48.764Z,4.40
2023-09-11T19:36:50.788Z,3.53
2023-09-11T19:39:52.742Z,3.97
2023-09-11T19:42:54.446Z,1.25
2023-09-11T19:45:56.357Z,3.45
2023-09-11T19:48:58.348Z,5.00
2023-09-11T19:52:00.810Z,3.92
2023-09-11T19:55:02.553Z,4.18
2023-09-11T19:58:04.528Z,3.83
2023-09-11T20:01:06.518Z,3.67
2023-09-11T20:04:08.460Z,4.35
2023-09-11T20:07:10.350Z,4.20
2023-09-11T20:10:12.308Z,4.20
2023-09-11T20:13:14.702Z,1.88
2023-09-11T20:16:16.433Z,3.55
2023-09-11T20:19:19.136Z,4.20
2023-09-11T20:22:20.809Z,3.63
2023-09-11T20:25:22.500Z,3.10
2023-09-11T20:28:24.263Z,2.95
2023-09-11T20:31:26.069Z,3.00
2023-09-11T20:34:27.748Z,3.63
2023-09-11T20:37:31.100Z,4.00
2023-09-11T20:40:33.117Z,3.30
2023-09-11T20:43:35.310Z,4.25
2023-09-11T20:46:37.003Z,3.72
2023-09-11T20:49:38.825Z,2.85
2023-09-11T20:52:40.569Z,3.85
2023-09-11T20:55:42.314Z,3.10
2023-09-11T20:58:45.419Z,3.38
2023-09-11T21:01:47.182Z,4.20
2023-09-11T21:04:51.034Z,3.45
2023-09-11T21:07:52.959Z,4.50
2023-09-11T21:10:54.827Z,2.60
2023-09-11T21:13:56.525Z,0.98
2023-09-11T21:16:58.227Z,5.07
2023-09-11T21:20:00.159Z,3.67
2023-09-11T21:23:03.876Z,3.60
2023-09-11T21:26:06.566Z,6.07
2023-09-11T21:29:08.294Z,3.58
2023-09-11T21:32:09.974Z,2.95
2023-09-11T21:35:11.687Z,3.17
2023-09-11T21:38:13.469Z,3.05
2023-09-11T21:41:16.223Z,3.28
2023-09-11T21:44:17.926Z,3.08
2023-09-11T21:47:19.615Z,3.30
2023-09-11T21:50:21.716Z,3.70
2023-09-11T21:53:23.439Z,3.75
2023-09-11T21:56:25.113Z,3.55
2023-09-11T21:59:27.140Z,3.28
2023-09-11T22:02:28.902Z,3.47
2023-09-11T22:05:32.081Z,3.67
2023-09-11T22:08:33.948Z,3.15
2023-09-11T22:11:35.725Z,4.30
2023-09-11T22:14:37.411Z,4.18
2023-09-11T22:17:39.218Z,3.33
2023-09-11T22:20:41.242Z,4.28
2023-09-11T22:23:43.166Z,3.78
2023-09-11T22:26:45.001Z,5.40
2023-09-11T22:29:46.701Z,3.55
2023-09-11T22:32:55.867Z,2.65
2023-09-11T22:35:57.862Z,3.42
2023-09-11T22:38:59.807Z,4.55
2023-09-11T22:42:01.554Z,3.20
2023-09-11T22:45:03.413Z,5.35
2023-09-11T22:48:05.509Z,4.43
2023-09-11T22:51:07.523Z,1.50
2023-09-11T22:54:09.225Z,3.70
2023-09-11T22:57:11.058Z,2.65
2023-09-11T23:00:13.432Z,4.82
2023-09-11T23:03:15.348Z,4.05
